createdAt,value
2019-02-06T00:01:06.510Z,136.37
2019-02-06T00:06:27.496Z,128.60
2019-02-06T00:11:48.640Z,124.07
2019-02-06T00:17:10.034Z,132.53
2019-02-06T00:22:31.220Z,145.17
2019-02-06T00:27:52.367Z,130.20
2019-02-06T00:33:13.483Z,141.63
2019-02-06T00:38:34.735Z,119.97
2019-02-06T00:43:55.961Z,113.50
2019-02-06T00:49:17.147Z,131.00
2019-02-06T00:54:38.490Z,125.90
2019-02-06T00:59:59.771Z,132.47
2019-02-06T01:05:21.195Z,128.13
2019-02-06T01:10:43.718Z,128.50
2019-02-06T01:16:05.191Z,124.40
2019-02-06T01:21:26.091Z,124.90
2019-02-06T01:26:47.168Z,132.23
2019-02-06T01:32:08.722Z,133.77
2019-02-06T01:37:29.767Z,153.30
2019-02-06T01:42:50.990Z,134.33
2019-02-06T01:48:12.060Z,128.87
2019-02-06T01:53:33.314Z,137.73
2019-02-06T01:58:55.074Z,176.90
2019-02-06T02:04:16.191Z,168.07
2019-02-06T02:09:37.356Z,143.10
2019-02-06T02:14:58.675Z,156.93
2019-02-06T02:20:24.222Z,169.93
2019-02-06T02:25:44.955Z,155.43
2019-02-06T02:31:06.280Z,123.57
2019-02-06T02:36:27.274Z,149.93
2019-02-06T02:41:49.951Z,135.07
2019-02-06T02:47:12.303Z,147.00
2019-02-06T02:52:33.759Z,147.80
2019-02-06T02:57:55.196Z,123.20
2019-02-06T03:03:35.135Z,115.60
2019-02-06T03:08:56.239Z,113.07
2019-02-06T03:14:18.191Z,143.83
2019-02-06T03:19:39.027Z,169.50
2019-02-06T03:25:00.446Z,111.17
2019-02-06T03:30:21.417Z,120.10
2019-02-06T03:35:42.518Z,119.27
2019-02-06T03:41:04.682Z,107.40
2019-02-06T03:46:25.795Z,117.30
2019-02-06T03:51:47.075Z,135.23
2019-02-06T03:57:08.319Z,117.73
2019-02-06T04:02:29.466Z,117.67
2019-02-06T04:07:50.625Z,139.07
2019-02-06T04:13:11.795Z,98.37
2019-02-06T04:18:32.994Z,114.83
2019-02-06T04:23:54.044Z,118.43
2019-02-06T04:29:15.356Z,103.33
2019-02-06T04:34:36.518Z,111.90
2019-02-06T04:39:57.747Z,112.97
2019-02-06T04:45:19.326Z,105.97
2019-02-06T04:50:40.839Z,103.50
2019-02-06T04:56:04.284Z,114.70
2019-02-06T05:01:25.960Z,102.67
2019-02-06T05:06:48.773Z,152.23
2019-02-06T05:12:10.415Z,141.27
2019-02-06T05:17:31.747Z,137.57
2019-02-06T05:22:52.931Z,157.77
2019-02-06T05:28:14.300Z,135.63
2019-02-06T05:33:36.751Z,133.63
2019-02-06T05:38:57.949Z,123.13
2019-02-06T05:44:19.162Z,102.03
2019-02-06T05:49:43.515Z,100.63
2019-02-06T05:55:05.245Z,97.20
2019-02-06T06:00:33.488Z,117.83
2019-02-06T06:05:54.312Z,132.50
2019-02-06T06:11:15.328Z,147.87
2019-02-06T06:16:36.626Z,278.77
2019-02-06T06:21:57.876Z,303.77
2019-02-06T06:27:19.095Z,156.17
2019-02-06T06:32:40.450Z,167.40
2019-02-06T06:38:02.810Z,160.60
2019-02-06T06:43:24.262Z,210.33
2019-02-06T06:48:45.535Z,205.40
2019-02-06T06:54:06.823Z,158.40
2019-02-06T06:59:28.081Z,168.37
2019-02-06T07:04:49.282Z,115.07
2019-02-06T07:10:12.315Z,181.60
2019-02-06T07:15:34.377Z,129.63
2019-02-06T07:20:55.355Z,122.87
2019-02-06T07:26:16.711Z,147.43
2019-02-06T07:31:39.111Z,125.53
2019-02-06T07:37:00.471Z,92.60
2019-02-06T07:42:21.358Z,94.00
2019-02-06T07:47:43.506Z,68.17
2019-02-06T07:53:51.807Z,64.63
2019-02-06T07:59:20.460Z,84.47
2019-02-06T08:04:41.766Z,78.20
2019-02-06T08:10:11.778Z,64.50
2019-02-06T08:15:36.015Z,60.13
2019-02-06T08:21:05.548Z,55.57
2019-02-06T08:26:26.771Z,66.10
2019-02-06T08:31:47.903Z,49.47
2019-02-06T08:37:09.347Z,55.13
2019-02-06T08:42:30.489Z,58.83
2019-02-06T08:47:52.030Z,59.27
2019-02-06T08:53:13.415Z,58.43
2019-02-06T08:58:34.414Z,59.87
2019-02-06T09:03:55.476Z,49.93
2019-02-06T09:09:18.422Z,50.17
2019-02-06T09:14:39.747Z,60.47
2019-02-06T09:20:01.231Z,50.57
2019-02-06T09:25:22.863Z,51.03
2019-02-06T09:30:43.876Z,48.57
2019-02-06T09:36:10.867Z,64.50
2019-02-06T09:41:32.103Z,52.57
2019-02-06T09:46:54.073Z,48.47
2019-02-06T09:52:15.123Z,61.33
2019-02-06T09:57:36.479Z,58.07
2019-02-06T10:02:57.576Z,65.37
2019-02-06T10:14:55.247Z,67.90
2019-02-06T10:20:20.653Z,68.00
2019-02-06T10:25:44.089Z,55.07
2019-02-06T10:31:05.764Z,59.30
2019-02-06T10:42:58.708Z,59.93
2019-02-06T10:48:21.030Z,57.77
2019-02-06T10:53:48.768Z,53.23
2019-02-06T10:59:25.334Z,60.30
2019-02-06T11:04:49.197Z,56.87
2019-02-06T11:10:24.088Z,43.27
2019-02-06T11:15:45.143Z,52.10
2019-02-06T11:21:18.759Z,55.67
2019-02-06T11:26:40.004Z,48.00
2019-02-06T11:32:04.123Z,51.73
2019-02-06T11:37:51.600Z,51.73
2019-02-06T11:43:32.142Z,60.53
2019-02-06T12:01:12.415Z,56.50
2019-02-06T12:06:33.556Z,49.40
2019-02-06T12:12:03.594Z,55.83
2019-02-06T12:17:34.201Z,50.73
2019-02-06T12:22:55.987Z,45.03
2019-02-06T12:28:16.742Z,48.80
2019-02-06T12:33:37.984Z,40.73
2019-02-06T12:38:59.608Z,45.67
2019-02-06T12:44:47.808Z,43.33
2019-02-06T12:50:45.515Z,47.63
2019-02-06T12:56:06.623Z,50.63
2019-02-06T13:02:12.411Z,52.63
2019-02-06T13:19:43.536Z,58.23
2019-02-06T13:25:07.357Z,64.07
2019-02-06T13:30:37.223Z,59.97
2019-02-06T13:36:40.486Z,76.57
2019-02-06T13:42:05.529Z,61.17
2019-02-06T13:47:29.235Z,66.90
2019-02-06T13:52:53.485Z,62.87
2019-02-06T13:58:20.256Z,72.23
2019-02-06T14:04:10.293Z,68.27
2019-02-06T14:09:33.050Z,65.27
2019-02-06T14:15:11.706Z,69.87
2019-02-06T14:20:42.772Z,72.57
2019-02-06T14:26:47.750Z,82.90
2019-02-06T14:32:59.059Z,73.43
2019-02-06T14:38:55.884Z,84.67
2019-02-06T14:44:59.400Z,72.63
2019-02-06T14:50:35.411Z,74.07
2019-02-06T14:56:33.753Z,89.47
2019-02-06T15:02:36.684Z,83.50
2019-02-06T15:08:20.968Z,74.53
2019-02-06T15:14:06.934Z,78.87
2019-02-06T15:19:42.476Z,79.63
2019-02-06T15:25:15.670Z,70.70
2019-02-06T15:31:16.232Z,84.13
2019-02-06T15:37:04.835Z,96.23
2019-02-06T15:42:37.021Z,93.47
2019-02-06T15:48:40.811Z,86.40
2019-02-06T15:54:10.143Z,85.10
2019-02-06T15:59:41.055Z,80.83
2019-02-06T16:05:21.737Z,75.33
2019-02-06T16:11:00.302Z,85.17
2019-02-06T16:16:58.741Z,76.90
2019-02-06T16:28:47.127Z,69.47
2019-02-06T16:34:16.612Z,79.20
2019-02-06T16:39:28.673Z,96.10
2019-02-06T16:45:03.299Z,77.60
2019-02-06T16:50:34.250Z,88.87
2019-02-06T16:56:04.770Z,94.90
2019-02-06T17:01:49.433Z,86.00
2019-02-06T17:07:25.951Z,90.37
2019-02-06T17:13:07.687Z,88.27
2019-02-06T17:18:26.192Z,90.43
2019-02-06T17:24:10.127Z,88.53
2019-02-06T17:30:10.651Z,84.97
2019-02-06T17:36:06.296Z,78.90
2019-02-06T17:42:00.498Z,84.40
2019-02-06T17:47:31.031Z,70.47
2019-02-06T17:53:17.982Z,71.43
2019-02-06T17:58:44.143Z,65.10
2019-02-06T18:03:58.832Z,72.37
2019-02-06T18:09:13.840Z,49.10
2019-02-06T18:14:41.668Z,66.53
2019-02-06T18:19:50.126Z,63.10
2019-02-06T18:25:10.113Z,125.33
2019-02-06T18:30:31.635Z,95.63
2019-02-06T18:35:35.167Z,73.07
2019-02-06T18:40:41.630Z,69.23
2019-02-06T18:46:06.045Z,51.17
2019-02-06T18:51:24.130Z,67.23
2019-02-06T19:26:31.610Z,130.10
2019-02-06T19:37:45.022Z,107.90
2019-02-06T19:54:51.269Z,61.67
2019-02-06T19:59:54.687Z,59.97
2019-02-06T20:04:57.531Z,71.97
2019-02-06T20:10:00.310Z,79.33
2019-02-06T20:15:04.481Z,56.33
2019-02-06T20:20:10.319Z,67.83
2019-02-06T20:25:13.436Z,63.17
2019-02-06T20:30:23.865Z,78.33
2019-02-06T20:35:46.832Z,58.40
2019-02-06T20:47:12.111Z,77.47
2019-02-06T20:52:14.834Z,80.60
2019-02-06T20:57:19.273Z,81.00
2019-02-06T21:02:22.621Z,53.70
2019-02-06T21:07:26.128Z,80.27
2019-02-06T21:12:28.682Z,68.40
2019-02-06T21:17:31.660Z,49.10
2019-02-06T21:22:34.779Z,71.43
2019-02-06T21:27:37.383Z,74.83
2019-02-06T21:32:40.055Z,61.07
2019-02-06T21:37:43.400Z,57.27
2019-02-06T21:43:05.708Z,59.73
2019-02-06T21:48:26.924Z,63.03
2019-02-06T21:53:51.784Z,88.83
2019-02-06T21:59:14.014Z,79.40
2019-02-06T22:04:35.329Z,80.23
2019-02-06T22:09:56.919Z,81.83
2019-02-06T22:15:20.539Z,68.57
2019-02-06T22:20:42.638Z,78.10
2019-02-06T22:26:03.764Z,102.67
2019-02-06T22:31:26.764Z,75.87
2019-02-06T22:36:47.854Z,70.40
2019-02-06T22:42:09.187Z,64.40
2019-02-06T22:47:30.212Z,57.40
2019-02-06T22:52:52.887Z,63.33
2019-02-06T22:58:22.558Z,59.77
2019-02-06T23:03:45.628Z,59.27
2019-02-06T23:09:07.363Z,47.63
2019-02-06T23:14:28.991Z,53.73
2019-02-06T23:19:50.087Z,58.87
2019-02-06T23:25:11.227Z,60.30
2019-02-06T23:30:33.061Z,52.47
2019-02-06T23:35:54.403Z,53.10
2019-02-06T23:41:15.606Z,61.17
2019-02-06T23:46:36.751Z,70.97
2019-02-06T23:51:57.959Z,56.40
2019-02-06T23:57:19.087Z,61.83
